createdAt,value
2022-08-08T00:03:31.645Z,84.21
2022-08-08T00:08:24.551Z,85.43
2022-08-08T00:14:16.923Z,80.12
2022-08-08T00:18:23.971Z,84.57
2022-08-08T00:23:15.092Z,83.13
2022-08-08T00:28:35.250Z,82.02
2022-08-08T00:33:19.260Z,82.06
2022-08-08T00:38:16.711Z,85.12
2022-08-08T00:48:29.395Z,86.53
2022-08-08T00:53:20.492Z,86.75
2022-08-08T00:58:18.912Z,88.69
2022-08-08T01:04:01.661Z,86.73
2022-08-08T01:08:19.484Z,86.61
2022-08-08T01:13:15.060Z,87.53
2022-08-08T01:23:55.034Z,87.48
2022-08-08T01:28:11.635Z,86.54
2022-08-08T01:33:16.297Z,86.04
2022-08-08T01:38:05.358Z,86.47
2022-08-08T01:43:17.523Z,87.53
2022-08-08T01:48:23.261Z,87.23
2022-08-08T01:55:15.791Z,88.11
2022-08-08T01:58:12.999Z,86.67
2022-08-08T02:03:07.383Z,85.29
2022-08-08T02:08:05.141Z,91.82
2022-08-08T02:13:04.756Z,89.57
2022-08-08T02:18:15.991Z,86.92
2022-08-08T02:22:58.525Z,85.60
2022-08-08T02:28:05.728Z,84.52
2022-08-08T02:32:57.984Z,85.39
2022-08-08T02:38:00.572Z,85.41
2022-08-08T02:44:34.703Z,86.12
2022-08-08T02:47:58.030Z,89.41
2022-08-08T02:53:09.711Z,84.39
2022-08-08T02:57:53.876Z,86.69
2022-08-08T03:03:01.994Z,83.15
2022-08-08T03:07:57.718Z,83.31
2022-08-08T03:13:01.448Z,88.57
2022-08-08T03:18:04.470Z,89.94
2022-08-08T03:23:01.866Z,91.27
2022-08-08T03:27:46.902Z,89.12
2022-08-08T03:32:58.840Z,80.17
2022-08-08T03:38:53.233Z,80.92
2022-08-08T03:42:57.479Z,81.33
2022-08-08T03:47:47.611Z,77.62
2022-08-08T03:52:47.600Z,76.84
2022-08-08T03:58:33.740Z,76.63
2022-08-08T04:02:47.615Z,74.71
2022-08-08T04:07:42.643Z,72.02
2022-08-08T04:12:42.687Z,68.48
2022-08-08T04:17:58.508Z,64.42
2022-08-08T04:22:37.067Z,72.18
2022-08-08T04:28:34.920Z,75.50
2022-08-08T04:32:36.973Z,74.91
2022-08-08T04:37:37.877Z,66.48
2022-08-08T04:42:55.840Z,64.35
2022-08-08T04:47:36.529Z,65.55
2022-08-08T04:52:36.484Z,66.27
2022-08-08T04:57:37.086Z,66.39
2022-08-08T05:02:42.315Z,61.32
2022-08-08T05:07:42.624Z,66.50
2022-08-08T05:12:42.751Z,69.67
2022-08-08T05:17:37.307Z,66.20
2022-08-08T05:22:35.918Z,62.35
2022-08-08T05:27:33.160Z,62.24
2022-08-08T05:32:35.809Z,56.11
2022-08-08T05:37:52.341Z,61.05
2022-08-08T05:42:42.302Z,59.09
2022-08-08T05:47:25.381Z,68.90
2022-08-08T05:52:42.320Z,63.41
2022-08-08T05:58:05.554Z,59.97
2022-08-08T06:02:27.956Z,61.64
2022-08-08T06:07:48.431Z,58.03
2022-08-08T06:12:30.911Z,58.17
2022-08-08T06:17:50.530Z,61.19
2022-08-08T06:22:33.663Z,65.38
2022-08-08T06:27:21.941Z,60.28
2022-08-08T06:32:27.536Z,58.63
2022-08-08T06:37:24.955Z,55.52
2022-08-08T06:42:30.878Z,54.94
2022-08-08T06:47:22.230Z,56.71
2022-08-08T06:52:18.767Z,65.13
2022-08-08T06:57:20.930Z,53.19
2022-08-08T07:02:28.398Z,50.84
2022-08-08T07:07:17.728Z,53.25
2022-08-08T07:12:14.782Z,50.97
2022-08-08T07:17:14.575Z,52.37
2022-08-08T07:22:19.267Z,53.85
2022-08-08T07:27:22.997Z,51.58
2022-08-08T07:32:17.011Z,49.43
2022-08-08T07:37:12.078Z,51.82
2022-08-08T07:42:25.884Z,48.37
2022-08-08T07:47:38.213Z,48.24
2022-08-08T07:52:13.488Z,51.25
2022-08-08T07:57:11.627Z,55.51
2022-08-08T08:02:35.627Z,49.43
2022-08-08T08:07:31.904Z,57.80
2022-08-08T08:12:31.483Z,53.05
2022-08-08T08:17:06.186Z,50.13
2022-08-08T08:22:14.950Z,51.37
2022-08-08T08:27:10.965Z,54.84
2022-08-08T08:32:09.000Z,53.07
2022-08-08T08:37:07.536Z,56.38
2022-08-08T08:47:11.556Z,55.22
2022-08-08T08:52:06.931Z,50.68
2022-08-08T08:57:15.768Z,56.81
2022-08-08T09:02:00.451Z,52.74
2022-08-08T09:07:12.854Z,58.10
2022-08-08T09:12:07.960Z,55.96
2022-08-08T09:16:58.855Z,56.02
2022-08-08T09:22:06.240Z,58.84
2022-08-08T09:27:02.915Z,56.98
2022-08-08T09:32:02.019Z,56.72
2022-08-08T09:37:29.110Z,51.47
2022-08-08T09:42:20.241Z,55.23
2022-08-08T09:47:05.154Z,54.00
2022-08-08T09:52:01.833Z,57.51
2022-08-08T09:57:01.545Z,54.16
2022-08-08T10:02:02.365Z,56.00
2022-08-08T10:06:58.148Z,55.94
2022-08-08T10:12:26.718Z,59.50
2022-08-08T10:16:55.651Z,57.95
2022-08-08T10:21:57.536Z,60.05
2022-08-08T10:26:59.346Z,56.79
2022-08-08T10:31:57.456Z,59.04
2022-08-08T10:37:00.064Z,59.06
2022-08-08T10:42:16.375Z,58.91
2022-08-08T10:47:02.241Z,57.77
2022-08-08T10:52:07.626Z,59.99
2022-08-08T10:56:56.052Z,60.22
2022-08-08T11:01:58.377Z,56.77
2022-08-08T11:06:54.721Z,53.01
2022-08-08T11:12:12.470Z,61.52
2022-08-08T11:16:50.035Z,55.03
2022-08-08T11:21:56.455Z,58.05
2022-08-08T11:26:57.899Z,58.39
2022-08-08T11:31:51.197Z,62.76
2022-08-08T11:36:58.624Z,61.47
2022-08-08T11:41:52.793Z,56.57
2022-08-08T11:46:54.306Z,57.08
2022-08-08T11:51:53.548Z,54.84
2022-08-08T11:56:56.135Z,58.99
2022-08-08T12:01:47.502Z,55.65
2022-08-08T12:06:47.176Z,57.03
2022-08-08T12:11:43.526Z,60.75
2022-08-08T12:16:47.252Z,62.49
2022-08-08T12:20:54.533Z,58.80
2022-08-08T12:26:45.538Z,50.63
2022-08-08T12:31:54.367Z,60.23
2022-08-08T12:36:46.337Z,56.20
2022-08-08T12:41:56.833Z,55.97
2022-08-08T12:46:47.386Z,53.98
2022-08-08T12:51:53.655Z,58.22
2022-08-08T12:56:44.320Z,60.56
2022-08-08T13:01:46.419Z,61.75
2022-08-08T13:06:46.102Z,58.16
2022-08-08T13:12:19.795Z,59.63
2022-08-08T13:16:42.504Z,55.34
2022-08-08T13:21:55.358Z,57.12
2022-08-08T13:26:45.145Z,51.97
2022-08-08T13:31:41.695Z,52.82
2022-08-08T13:36:41.853Z,49.02
2022-08-08T13:41:51.898Z,48.24
2022-08-08T13:46:40.981Z,51.12
2022-08-08T13:51:41.702Z,51.12
2022-08-08T13:56:44.626Z,53.44
2022-08-08T14:01:56.604Z,52.12
2022-08-08T14:06:39.875Z,53.86
2022-08-08T14:11:42.877Z,55.15
2022-08-08T14:16:39.615Z,54.37
2022-08-08T14:21:39.481Z,54.40
2022-08-08T14:26:38.313Z,59.31
2022-08-08T14:32:10.721Z,56.90
2022-08-08T14:36:37.807Z,55.40
2022-08-08T14:41:53.343Z,54.42
2022-08-08T14:46:40.316Z,54.91
2022-08-08T14:51:52.558Z,56.13
2022-08-08T14:56:36.386Z,54.38
2022-08-08T15:01:37.691Z,56.45
2022-08-08T15:06:35.769Z,56.80
2022-08-08T15:11:43.238Z,56.38
2022-08-08T15:16:38.163Z,56.25
2022-08-08T15:21:34.479Z,55.45
2022-08-08T15:26:34.259Z,56.38
2022-08-08T15:32:04.055Z,56.40
2022-08-08T15:36:36.447Z,56.48
2022-08-08T15:41:43.696Z,54.13
2022-08-08T15:46:34.954Z,52.18
2022-08-08T15:51:35.268Z,58.94
2022-08-08T15:56:31.895Z,58.44
2022-08-08T16:01:40.496Z,57.78
2022-08-08T16:06:31.182Z,54.21
2022-08-08T16:13:14.182Z,55.99
2022-08-08T16:16:30.177Z,54.70
2022-08-08T16:21:32.813Z,54.06
2022-08-08T16:26:34.765Z,53.15
2022-08-08T16:31:28.920Z,53.89
2022-08-08T16:36:33.812Z,53.91
2022-08-08T16:41:31.449Z,57.59
2022-08-08T16:46:36.736Z,60.06
2022-08-08T16:55:01.182Z,58.68
2022-08-08T16:56:26.653Z,57.00
2022-08-08T17:01:35.478Z,52.30
2022-08-08T17:06:37.563Z,52.95
2022-08-08T17:11:28.140Z,52.27
2022-08-08T17:16:28.571Z,53.01
2022-08-08T17:21:27.579Z,55.88
2022-08-08T17:26:28.831Z,54.88
2022-08-08T17:31:44.683Z,51.06
2022-08-08T17:36:31.113Z,53.25
2022-08-08T17:41:23.152Z,52.17
2022-08-08T17:46:26.446Z,51.76
2022-08-08T17:51:22.228Z,53.48
2022-08-08T17:56:21.453Z,54.69
2022-08-08T18:01:29.911Z,55.31
2022-08-08T18:06:30.632Z,57.56
2022-08-08T18:11:20.149Z,59.04
2022-08-08T18:16:23.248Z,59.50
2022-08-08T18:21:34.493Z,56.06
2022-08-08T18:26:22.013Z,60.01
2022-08-08T18:31:18.032Z,60.10
2022-08-08T18:36:22.965Z,57.60
2022-08-08T18:41:17.115Z,59.07
2022-08-08T18:46:55.326Z,64.99
2022-08-08T18:51:42.088Z,59.93
2022-08-08T18:56:15.706Z,57.25
2022-08-08T19:02:25.426Z,56.72
2022-08-08T19:06:14.771Z,55.89
2022-08-08T19:11:17.379Z,57.08
2022-08-08T19:16:19.308Z,54.58
2022-08-08T19:21:28.041Z,54.00
2022-08-08T19:26:29.279Z,55.56
2022-08-08T19:31:12.991Z,56.00
2022-08-08T19:36:14.479Z,51.84
2022-08-08T19:41:21.235Z,59.63
2022-08-08T19:46:10.268Z,56.98
2022-08-08T19:51:13.986Z,58.64
2022-08-08T19:56:13.025Z,56.78
2022-08-08T20:01:17.235Z,55.57
2022-08-08T20:06:14.595Z,56.86
2022-08-08T20:11:08.073Z,55.79
2022-08-08T20:16:08.102Z,60.10
2022-08-08T20:21:06.394Z,58.21
2022-08-08T20:26:09.257Z,58.39
2022-08-08T20:31:05.454Z,57.39
2022-08-08T20:36:07.705Z,58.76
2022-08-08T20:41:17.845Z,59.52
2022-08-08T20:46:06.983Z,63.43
2022-08-08T20:51:04.173Z,65.64
2022-08-08T20:56:02.590Z,63.83
2022-08-08T21:01:02.048Z,66.70
2022-08-08T21:06:02.024Z,69.88
2022-08-08T21:11:04.702Z,69.04
2022-08-08T21:16:05.777Z,63.72
2022-08-08T21:20:59.769Z,60.74
2022-08-08T21:26:02.105Z,59.67
2022-08-08T21:30:58.463Z,60.50
2022-08-08T21:36:18.002Z,63.59
2022-08-08T21:40:58.469Z,65.23
2022-08-08T21:48:06.843Z,65.02
2022-08-08T21:50:56.025Z,67.35
2022-08-08T21:56:19.447Z,67.50
2022-08-08T22:00:55.231Z,65.94
2022-08-08T22:05:54.516Z,67.71
2022-08-08T22:28:03.026Z,66.43
2022-08-08T22:34:12.253Z,82.77
2022-08-08T22:38:25.280Z,83.12
2022-08-08T22:43:28.095Z,76.28
2022-08-08T22:48:26.895Z,75.83
2022-08-08T22:54:31.667Z,71.57
2022-08-08T22:58:22.305Z,76.08
2022-08-08T23:03:25.347Z,72.42
2022-08-08T23:08:24.165Z,72.68
2022-08-08T23:13:23.893Z,78.06
2022-08-08T23:18:22.643Z,80.70
2022-08-08T23:23:18.639Z,83.22
2022-08-08T23:28:18.975Z,83.12
2022-08-08T23:34:17.292Z,84.39
2022-08-08T23:38:17.237Z,83.49
2022-08-08T23:43:15.972Z,80.45
2022-08-08T23:49:06.771Z,77.63
2022-08-08T23:53:15.098Z,79.38
2022-08-08T23:58:37.642Z,79.45
